Stolt Surf — ZCSR3 — position and weather

sailwx.info

Track history (hours):
 
Tides and Currents Weather Stations Pressure Air Temp Water Temp Dewpoint Dewpoint Depression Visibility Wind Speed Wind Dir Waves Ship Positions

Stolt Surf

Last reported at 2015-Mar-25 01:22 UTC. Time now 2015-Mar-27 12:00 UTC.
Position N 01°60' E 102°13'.

Length 163 m; draft 10.7 m.

Type: Ship. MMSI: 319545000.

Date/timePositionNaut miles runAvg speedWind from/ knotsBaromVisibWave heightAir tempDewpointWater temp
2015-Mar-25 01:22N 01°60' E 102°13'1112.1
2015-Mar-25 00:30N 01°54' E 102°22'1213.0
2015-Mar-24 23:33N 01°49' E 102°33'8812.1
2015-Mar-24 16:18N 01°13' E 103°53'1013.6
2015-Mar-24 15:33N 01°16' E 104°03'7 6.8
2015-Mar-24 14:33N 01°23' E 104°01'0 0.0
2015-Mar-23 04:25N 01°23' E 104°01'8 4.1
2015-Mar-23 02:27N 01°19' E 104°08'0 0.1
2015-Mar-22 23:15N 01°19' E 104°08'0 0.0
2015-Mar-22 21:33N 01°19' E 104°08'0 0.0
2015-Mar-22 20:09N 01°19' E 104°08'0 0.0
2015-Mar-22 18:33N 01°19' E 104°08'0 0.0
2015-Mar-22 15:33N 01°19' E 104°08'0 0.0
2015-Mar-22 11:15N 01°19' E 104°08'0 0.0
2015-Mar-22 07:33N 01°19' E 104°08'0 0.1
2015-Mar-22 05:33N 01°19' E 104°08'0 0.0
2015-Mar-22 03:18N 01°19' E 104°08'0 0.0
2015-Mar-22 02:33N 01°19' E 104°08'0 0.1
2015-Mar-21 23:15N 01°19' E 104°08'0 0.0
2015-Mar-21 21:15N 01°19' E 104°08'0 0.0
2015-Mar-21 20:33N 01°19' E 104°08'0 0.0
2015-Mar-21 18:15N 01°19' E 104°08'0 0.1
2015-Mar-21 16:09N 01°19' E 104°08'0 0.0
2015-Mar-21 15:27N 01°19' E 104°08'0 0.0
2015-Mar-21 13:03N 01°19' E 104°08'0 0.1
2015-Mar-21 11:03N 01°19' E 104°08'0 0.0
2015-Mar-21 09:18N 01°19' E 104°08'0 0.0
2015-Mar-21 07:27N 01°19' E 104°08'0 0.0
2015-Mar-21 06:15N 01°19' E 104°08'0 0.3
2015-Mar-21 05:28N 01°19' E 104°08'5 5.4
2015-Mar-21 04:33N 01°16' E 104°04'92 9.8
2015-Mar-20 19:11N 01°43' E 102°36'  
2015-Mar-15 12:14N 02°02' E 102°10'1613.5
2015-Mar-15 11:05N 01°54' E 102°23'9412.4
2015-Mar-15 03:32N 01°09' E 103°45'1110.9
2015-Mar-15 02:31N 01°14' E 103°55'1111.3
2015-Mar-15 01:32N 01°16' E 104°06'  
Track history (hours):
 
Tides and Currents Weather Stations Pressure Air Temp Water Temp Dewpoint Dewpoint Depression Visibility Wind Speed Wind Dir Waves Ship Positions

Stolt Surf

Last reported at 2015-Mar-25 01:22 UTC. Time now 2015-Mar-27 12:00 UTC.
Position N 01°60' E 102°13'.

Length 163 m; draft 10.7 m.

Type: Ship. MMSI: 319545000.

Date/timePositionNaut miles runAvg speedWind from/ knotsBaromVisibWave heightAir tempDewpointWater temp
2015-Mar-25 01:22N 01°60' E 102°13'1112.1
2015-Mar-25 00:30N 01°54' E 102°22'1213.0
2015-Mar-24 23:33N 01°49' E 102°33'8812.1
2015-Mar-24 16:18N 01°13' E 103°53'1013.6
2015-Mar-24 15:33N 01°16' E 104°03'7 6.8
2015-Mar-24 14:33N 01°23' E 104°01'0 0.0
2015-Mar-23 04:25N 01°23' E 104°01'8 4.1
2015-Mar-23 02:27N 01°19' E 104°08'0 0.1
2015-Mar-22 23:15N 01°19' E 104°08'0 0.0
2015-Mar-22 21:33N 01°19' E 104°08'0 0.0
2015-Mar-22 20:09N 01°19' E 104°08'0 0.0
2015-Mar-22 18:33N 01°19' E 104°08'0 0.0
2015-Mar-22 15:33N 01°19' E 104°08'0 0.0
2015-Mar-22 11:15N 01°19' E 104°08'0 0.0
2015-Mar-22 07:33N 01°19' E 104°08'0 0.1
2015-Mar-22 05:33N 01°19' E 104°08'0 0.0
2015-Mar-22 03:18N 01°19' E 104°08'0 0.0
2015-Mar-22 02:33N 01°19' E 104°08'0 0.1
2015-Mar-21 23:15N 01°19' E 104°08'0 0.0
2015-Mar-21 21:15N 01°19' E 104°08'0 0.0
2015-Mar-21 20:33N 01°19' E 104°08'0 0.0
2015-Mar-21 18:15N 01°19' E 104°08'0 0.1
2015-Mar-21 16:09N 01°19' E 104°08'0 0.0
2015-Mar-21 15:27N 01°19' E 104°08'0 0.0
2015-Mar-21 13:03N 01°19' E 104°08'0 0.1
2015-Mar-21 11:03N 01°19' E 104°08'0 0.0
2015-Mar-21 09:18N 01°19' E 104°08'0 0.0
2015-Mar-21 07:27N 01°19' E 104°08'0 0.0
2015-Mar-21 06:15N 01°19' E 104°08'0 0.3
2015-Mar-21 05:28N 01°19' E 104°08'5 5.4
2015-Mar-21 04:33N 01°16' E 104°04'92 9.8
2015-Mar-20 19:11N 01°43' E 102°36'  
2015-Mar-15 12:14N 02°02' E 102°10'1613.5
2015-Mar-15 11:05N 01°54' E 102°23'9412.4
2015-Mar-15 03:32N 01°09' E 103°45'1110.9
2015-Mar-15 02:31N 01°14' E 103°55'1111.3
2015-Mar-15 01:32N 01°16' E 104°06'  

Dump ship's entire track history